• Join FlightAware (Why Join?)
  • Login
  • US Flag 
08:03AM EDT


 

Airport Tracker/Info


-or-


 

Live Flight TrackerFlight Track Log ✈ AWE3418 ✈ 29-Apr-2013 ✈ KPHL - KMHT

Flight Track Log - Related Links

Times and Time Zones

All times are in EDT time to prevent confusion due to time zone crossing. See the AWE3418 flight status page for this flight to view local times or setup timezone preferences in your user account.

Time Position Orientation Groundspeed Altitude Reporting Facility
EDT Latitude Longitude Course Direction KTS MPH feet Rate Location/Type
07:08PM 39.8833 -75.2167 37° Northeast 156 180 900  Level Philadelphia TRACON
07:09PM 39.8667 -75.1500 108° East 209 241 2,800 2,340 Climbing Philadelphia TRACON
07:10PM 39.8667 -75.0667 90° East 248 285 5,600 2,580 Climbing Philadelphia TRACON
07:11PM 39.8167 -74.9063 90° East  Level FlightAware Approximate
07:12PM 39.8022 -74.7943 105° East  Level FlightAware Approximate
07:12PM 39.7736 -74.9222 130° Southeast 274 315 10,900  Level New York Center
07:13PM 39.7937 -74.6897 37° Northeast  Level FlightAware Approximate
07:13PM 39.7714 -74.8086 91° East 294 338 13,200  Level New York Center
07:14PM 39.8634 -74.6200 37° Northeast  Level FlightAware Approximate
07:14PM 39.8275 -74.6875 59° Northeast 318 366 15,300  Level New York Center
07:15PM 39.9117 -74.6031 38° Northeast 339 390 17,800 2,280 Climbing New York Center
07:16PM 39.9847 -74.5311 37° Northeast 357 411 19,800 1,860 Climbing New York Center
07:17PM 40.0839 -74.4308 38° Northeast 389 448 21,600 1,680 Climbing New York Center
07:18PM 40.1806 -74.3353 37° Northeast 408 470 23,300 1,680 Climbing New York Center
07:19PM 40.2850 -74.2592 29° Northeast 415 478 25,000 1,560 Climbing New York Center
07:20PM 40.3956 -74.1883 26° Northeast 425 489 26,400 960 Climbing New York Center
07:21PM 40.5169 -74.1644 North 435 501 27,000 120 Climbing New York Center
07:24PM 40.7978 -74.1233 North 440 506 27,000  Level Boston Center
07:25PM 40.9208 -74.1047 North 445 512 27,000  Level Boston Center
07:26PM 41.0506 -74.0806 North 450 518 27,000  Level Boston Center
07:27PM 41.1800 -74.0589 North 460 529 27,000  Level Boston Center
07:28PM 41.3094 -74.0400 North 465 535 27,000  Level Boston Center
07:29PM 41.4389 -74.0183 North 465 535 27,000  Level Boston Center
07:30PM 41.5686 -73.9967 North 465 535 27,000  Level Boston Center
07:31PM 41.6939 -73.9775 North 460 529 27,000  Level Boston Center
07:32PM 41.8275 -73.9558 North 460 529 27,000  Level Boston Center
07:33PM 41.9528 -73.9364 North 454 522 27,000  Level Boston Center
07:34PM 42.0583 -73.8439 33° Northeast 436 502 27,000  Level Boston Center
07:35PM 42.1244 -73.6997 58° Northeast 443 510 27,000 -480 Level Boston Center
07:36PM 42.1950 -73.5525 57° Northeast 461 531 26,100 -1,260 Descending Boston Center
07:37PM 42.2650 -73.4081 57° Northeast 467 537 24,500 -1,560 Descending Boston Center
07:38PM 42.3350 -73.2631 57° Northeast 446 513 23,000 -1,500 Descending Boston Center
07:39PM 42.3961 -73.1317 58° Northeast 447 514 21,500 -1,500 Descending Boston Center
07:40PM 42.4617 -72.9972 57° Northeast 431 496 20,100 -1,260 Descending Boston Center
07:41PM 42.5267 -72.8569 58° Northeast 417 480 19,000 -840 Descending Boston Center
07:42PM 42.5814 -72.7278 60° Northeast 392 451 18,500 -900 Descending Boston Center
07:43PM 42.6211 -72.6094 65° Northeast 386 444 17,300 -1,560 Descending Boston Center
07:44PM 42.6631 -72.4739 67° East 380 437 15,400 -1,860 Descending Boston Center
07:45PM 42.7006 -72.3442 68° East 374 430 13,600 -1,980 Descending Boston Center
07:46PM 42.7400 -72.2056 69° East 363 418 11,500 -1,800 Descending Boston Center
07:47PM 42.7731 -72.0922 68° East 356 410 10,000 -1,200 Descending Boston Center
07:48PM 42.8183 -71.9872 60° Northeast 309 356 9,200 -1,380 Descending Boston Center
07:49PM 42.8597 -71.9047 56° Northeast 287 330 7,300 -1,800 Descending Boston Center
07:50PM 42.9072 -71.8081 56° Northeast 282 325 5,600 -1,620 Descending Boston Center
07:51PM 42.9483 -71.7367 52° Northeast 271 312 4,100 -900 Descending Boston Center
07:52PM 42.9958 -71.6453 55° Northeast 271 312 3,800 -540 Descending Boston Center
07:53PM 43.0222 -71.5767 62° Northeast 239 275 3,100 -720 Descending Boston Center